createdAt,value
2022-11-18T00:00:02.391Z,79.10
2022-11-18T00:05:04.158Z,79.12
2022-11-18T00:10:05.952Z,79.64
2022-11-18T00:15:07.580Z,79.78
2022-11-18T00:20:09.013Z,79.30
2022-11-18T00:25:10.376Z,79.13
2022-11-18T00:30:11.853Z,79.07
2022-11-18T00:35:13.403Z,79.12
2022-11-18T00:40:14.884Z,79.18
2022-11-18T00:45:16.416Z,79.18
2022-11-18T00:50:17.860Z,78.90
2022-11-18T00:55:19.274Z,79.04
2022-11-18T01:00:20.776Z,79.13
2022-11-18T01:05:22.227Z,78.95
2022-11-18T01:10:23.605Z,78.53
2022-11-18T01:15:25.052Z,78.96
2022-11-18T01:20:26.458Z,78.64
2022-11-18T01:25:28.625Z,78.35
2022-11-18T01:30:30.059Z,78.86
2022-11-18T01:35:36.263Z,78.74
2022-11-18T01:40:38.864Z,78.42
2022-11-18T01:45:42.134Z,78.92
2022-11-18T01:50:47.890Z,78.73
2022-11-18T01:55:52.056Z,78.26
2022-11-18T02:00:54.193Z,78.58
2022-11-18T02:05:55.766Z,78.41
2022-11-18T02:10:57.548Z,78.26
2022-11-18T02:16:11.426Z,78.85
2022-11-18T02:21:42.010Z,78.58
2022-11-18T02:27:02.076Z,79.01
2022-11-18T02:32:25.042Z,78.66
2022-11-18T02:37:38.968Z,78.68
2022-11-18T02:42:44.475Z,78.78
2022-11-18T02:47:48.123Z,78.63
2022-11-18T02:52:55.037Z,78.67
2022-11-18T02:57:58.070Z,79.21
2022-11-18T03:03:00.271Z,79.19
2022-11-18T03:08:11.047Z,79.56
2022-11-18T03:13:22.942Z,80.05
2022-11-18T03:18:53.345Z,79.79
2022-11-18T03:24:09.540Z,79.88
2022-11-18T03:29:32.700Z,79.20
2022-11-18T03:34:49.261Z,79.17
2022-11-18T03:39:55.210Z,79.56
2022-11-18T03:45:03.716Z,79.41
2022-11-18T03:50:17.244Z,79.55
2022-11-18T03:55:24.342Z,80.20
2022-11-18T04:00:29.891Z,80.01
2022-11-18T04:05:38.148Z,79.88
2022-11-18T04:10:52.328Z,79.61
2022-11-18T04:15:54.491Z,79.49
2022-11-18T04:20:55.850Z,79.78
2022-11-18T04:25:57.186Z,80.11
2022-11-18T04:30:58.537Z,80.03
2022-11-18T04:35:59.880Z,80.26
2022-11-18T04:41:01.222Z,79.85
2022-11-18T04:46:02.788Z,79.55
2022-11-18T04:51:04.873Z,80.04
2022-11-18T04:56:07.701Z,79.49
2022-11-18T05:01:09.092Z,79.85
2022-11-18T05:06:10.446Z,79.93
2022-11-18T05:11:30.815Z,79.75
2022-11-18T05:16:32.208Z,80.29
2022-11-18T05:21:33.686Z,80.10
2022-11-18T05:26:35.087Z,79.98
2022-11-18T05:31:36.571Z,79.84
2022-11-18T05:36:37.931Z,79.53
2022-11-18T05:41:57.986Z,79.87
2022-11-18T05:47:00.181Z,79.43
2022-11-18T05:52:02.445Z,79.52
2022-11-18T05:57:03.918Z,79.50
2022-11-18T06:02:30.626Z,79.21
2022-11-18T06:07:39.192Z,79.09
2022-11-18T06:12:45.345Z,79.75
2022-11-18T06:18:02.081Z,79.82
2022-11-18T06:23:03.760Z,80.91
2022-11-18T06:28:05.328Z,80.50
2022-11-18T06:33:06.942Z,80.92
2022-11-18T06:38:08.570Z,80.84
2022-11-18T06:43:29.867Z,80.57
2022-11-18T06:48:32.103Z,80.67
2022-11-18T06:53:35.128Z,80.47
2022-11-18T06:58:36.753Z,80.15
2022-11-18T07:03:40.140Z,80.94
2022-11-18T07:08:42.513Z,80.76
2022-11-18T07:13:45.564Z,81.15
2022-11-18T07:18:48.746Z,80.91
2022-11-18T07:23:50.697Z,80.84
2022-11-18T07:28:54.185Z,81.03
2022-11-18T07:33:55.839Z,80.90
2022-11-18T07:39:01.962Z,80.57
2022-11-18T07:44:04.604Z,80.88
2022-11-18T07:49:10.848Z,80.85
2022-11-18T07:54:14.560Z,81.44
2022-11-18T07:59:16.657Z,80.74
2022-11-18T08:04:18.386Z,81.34
2022-11-18T08:09:20.045Z,80.70
2022-11-18T08:14:24.093Z,80.78
2022-11-18T08:19:25.750Z,81.24
2022-11-18T08:24:27.249Z,81.02
2022-11-18T08:29:29.160Z,81.56
2022-11-18T08:34:31.501Z,81.53
2022-11-18T08:39:33.094Z,81.27
2022-11-18T08:44:35.171Z,81.49
2022-11-18T08:49:37.155Z,81.79
2022-11-18T08:54:38.933Z,81.48
2022-11-18T08:59:40.537Z,81.75
2022-11-18T09:04:42.249Z,81.84
2022-11-18T09:09:43.738Z,81.93
2022-11-18T09:20:07.686Z,81.84
2022-11-18T09:25:09.415Z,81.62
2022-11-18T09:30:11.149Z,81.71
2022-11-18T09:35:13.573Z,81.95
2022-11-18T09:40:18.358Z,81.85
2022-11-18T09:45:31.006Z,82.22
2022-11-18T09:50:50.071Z,82.04
2022-11-18T09:55:54.004Z,81.99
2022-11-18T10:00:55.373Z,82.05
2022-11-18T10:06:09.704Z,81.88
2022-11-18T10:11:20.187Z,81.38
2022-11-18T10:16:57.719Z,81.61
2022-11-18T10:22:24.656Z,82.16
2022-11-18T10:27:35.030Z,81.76
2022-11-18T10:33:02.837Z,81.63
2022-11-18T10:38:13.186Z,81.34
2022-11-18T10:43:45.280Z,81.26
2022-11-18T10:48:47.279Z,81.72
2022-11-18T10:53:48.722Z,81.14
2022-11-18T10:58:51.401Z,80.92
2022-11-18T11:03:55.767Z,81.22
2022-11-18T11:09:28.432Z,81.23
2022-11-18T11:14:35.636Z,81.30
2022-11-18T11:19:52.004Z,80.73
2022-11-18T11:24:53.510Z,81.32
2022-11-18T11:30:16.630Z,81.25
2022-11-18T11:35:23.938Z,80.66
2022-11-18T11:40:34.911Z,80.99
2022-11-18T11:45:47.229Z,81.18
2022-11-18T11:51:04.989Z,81.30
2022-11-18T11:56:22.392Z,81.71
2022-11-18T12:01:49.742Z,81.49
2022-11-18T12:06:53.374Z,81.67
2022-11-18T12:12:28.946Z,81.77
2022-11-18T12:17:46.751Z,82.27
2022-11-18T12:23:12.190Z,81.84
2022-11-18T12:28:30.647Z,81.96
2022-11-18T12:33:32.114Z,81.79
2022-11-18T12:38:33.502Z,81.73
2022-11-18T12:44:05.470Z,81.93
2022-11-18T12:49:22.161Z,81.50
2022-11-18T12:54:29.188Z,81.83
2022-11-18T12:59:36.301Z,81.61
2022-11-18T13:04:45.837Z,81.47
2022-11-18T13:09:49.072Z,81.75
2022-11-18T13:15:09.803Z,81.10
2022-11-18T13:20:37.347Z,81.33
2022-11-18T13:25:40.132Z,80.81
2022-11-18T13:30:51.169Z,80.94
2022-11-18T13:35:52.681Z,80.94
2022-11-18T13:41:08.199Z,80.73
2022-11-18T13:46:17.138Z,80.76
2022-11-18T13:51:18.738Z,80.74
2022-11-18T13:56:22.638Z,80.07
2022-11-18T14:01:27.475Z,80.09
2022-11-18T14:06:41.226Z,79.50
2022-11-18T14:11:46.273Z,78.38
2022-11-18T14:16:47.996Z,78.16
2022-11-18T14:21:49.445Z,78.22
2022-11-18T14:26:50.800Z,77.94
2022-11-18T14:32:14.817Z,77.00
2022-11-18T14:37:16.506Z,77.22
2022-11-18T14:42:17.882Z,76.57
2022-11-18T14:47:28.382Z,75.91
2022-11-18T14:52:29.834Z,76.16
2022-11-18T14:57:31.238Z,76.09
2022-11-18T15:02:32.679Z,76.18
2022-11-18T15:07:34.443Z,76.35
2022-11-18T15:12:35.859Z,76.49
2022-11-18T15:17:37.306Z,76.73
2022-11-18T15:22:38.754Z,76.52
2022-11-18T15:27:40.295Z,76.64
2022-11-18T15:32:42.331Z,76.33
2022-11-18T15:37:43.704Z,76.55
2022-11-18T15:42:50.616Z,76.91
2022-11-18T15:47:53.544Z,77.37
2022-11-18T15:52:55.749Z,77.38
2022-11-18T15:57:57.075Z,77.31
2022-11-18T16:02:58.426Z,77.14
2022-11-18T16:07:59.903Z,77.39
2022-11-18T16:13:01.287Z,77.02
2022-11-18T16:18:03.561Z,76.53
2022-11-18T16:23:05.163Z,76.54
2022-11-18T16:33:27.897Z,76.76
2022-11-18T16:38:29.304Z,76.94
2022-11-18T16:40:28.282Z,76.70
2022-11-18T16:43:30.663Z,77.16
2022-11-18T16:48:32.012Z,77.17
2022-11-18T16:53:33.366Z,77.43
2022-11-18T16:58:34.795Z,77.53
2022-11-18T17:03:36.183Z,77.89
2022-11-18T17:08:37.747Z,77.82
2022-11-18T17:13:40.444Z,77.84
2022-11-18T17:18:42.757Z,78.14
2022-11-18T17:23:45.829Z,78.32
2022-11-18T17:28:47.328Z,78.39
2022-11-18T17:33:50.947Z,78.23
2022-11-18T17:38:54.587Z,77.92
2022-11-18T17:43:55.981Z,78.16
2022-11-18T17:48:59.027Z,78.18
2022-11-18T17:54:00.379Z,78.33
2022-11-18T17:59:01.804Z,78.38
2022-11-18T18:04:03.206Z,78.05
2022-11-18T18:09:04.592Z,78.32
2022-11-18T18:14:14.810Z,78.35
2022-11-18T18:19:21.525Z,78.33
2022-11-18T18:24:24.033Z,78.16
2022-11-18T18:29:25.717Z,78.04
2022-11-18T18:34:27.141Z,78.14
2022-11-18T18:39:28.553Z,78.10
2022-11-18T18:44:49.879Z,78.18
2022-11-18T18:49:51.248Z,78.16
2022-11-18T18:54:52.716Z,78.27
2022-11-18T18:59:54.078Z,78.17
2022-11-18T19:04:55.467Z,78.37
2022-11-18T19:09:56.863Z,78.56
2022-11-18T19:14:58.250Z,78.47
2022-11-18T19:20:18.068Z,78.21
2022-11-18T19:25:19.512Z,78.27
2022-11-18T19:30:20.886Z,78.17
2022-11-18T19:35:22.976Z,78.41
2022-11-18T19:40:24.329Z,78.49
2022-11-18T19:45:25.756Z,78.60
2022-11-18T19:50:27.326Z,78.49
2022-11-18T19:55:28.645Z,78.51
2022-11-18T20:00:30.193Z,78.68
2022-11-18T20:05:52.758Z,78.31
2022-11-18T20:10:54.181Z,78.56
2022-11-18T20:16:10.449Z,78.54
2022-11-18T20:21:19.692Z,78.62
2022-11-18T20:26:23.365Z,78.54
2022-11-18T20:31:26.091Z,78.70
2022-11-18T20:36:33.271Z,79.14
2022-11-18T20:41:36.196Z,79.09
2022-11-18T20:46:37.554Z,78.86
2022-11-18T20:51:38.915Z,78.86
2022-11-18T20:56:40.439Z,79.02
2022-11-18T21:01:41.906Z,78.88
2022-11-18T21:06:43.295Z,78.94
2022-11-18T21:11:44.629Z,78.66
2022-11-18T21:16:46.291Z,78.76
2022-11-18T21:21:54.513Z,78.72
2022-11-18T21:26:57.762Z,79.02
2022-11-18T21:32:02.907Z,79.07
2022-11-18T21:37:05.289Z,79.07
2022-11-18T21:42:06.623Z,79.26
2022-11-18T21:47:07.962Z,79.70
2022-11-18T21:52:09.307Z,79.36
2022-11-18T21:57:10.670Z,79.89
2022-11-18T22:02:15.205Z,79.92
2022-11-18T22:07:16.670Z,80.02
2022-11-18T22:12:18.178Z,80.09
2022-11-18T22:17:19.544Z,80.01
2022-11-18T22:22:21.696Z,79.92
2022-11-18T22:27:23.050Z,79.79
2022-11-18T22:32:24.802Z,80.00
2022-11-18T22:37:26.137Z,80.03
2022-11-18T22:42:45.819Z,79.55
2022-11-18T22:47:47.162Z,79.56
2022-11-18T22:52:48.489Z,79.38
2022-11-18T22:57:49.828Z,79.59
2022-11-18T23:02:51.185Z,79.41
2022-11-18T23:07:52.566Z,79.30
2022-11-18T23:13:12.324Z,79.16
2022-11-18T23:18:13.727Z,78.86
2022-11-18T23:23:15.134Z,79.15
2022-11-18T23:28:16.473Z,79.56
2022-11-18T23:33:17.887Z,79.52
2022-11-18T23:38:19.221Z,79.32
2022-11-18T23:43:20.688Z,78.98
2022-11-18T23:48:23.368Z,79.12
2022-11-18T23:53:25.981Z,79.39
2022-11-18T23:58:27.490Z,79.37
